Time;durP1;ratioP1;P1;durP2;ratioP2;P2;SDS_P1;SDS_P2;PMS_P1;PMS_P2;Temp;Humidity;BMP_temperature;BMP_pressure;BME280_temperature;BME280_humidity;BME280_pressure;Samples;Min_cycle;Max_cycle;Signal;HPM_P1;HPM_P2
2023/04/30 00:01:16;;;;;;;24.05;16.07;;;;;;;9.13;100.00;99380.39;1733150;83;21179;-81
2023/04/30 00:04:22;;;;;;;28.98;16.93;;;;;;;9.20;100.00;99380.78;1733114;83;21179;-81
2023/04/30 00:07:27;;;;;;;28.05;17.23;;;;;;;9.08;100.00;99374.63;1733095;83;21227;-80
2023/04/30 00:10:32;;;;;;;23.50;15.68;;;;;;;9.04;100.00;99363.80;1732841;83;21208;-80
2023/04/30 00:13:38;;;;;;;27.65;16.42;;;;;;;9.04;100.00;99367.88;1733167;83;21180;-80
2023/04/30 00:16:43;;;;;;;32.95;17.82;;;;;;;8.96;100.00;99350.56;1731749;83;21188;-80
2023/04/30 00:19:49;;;;;;;28.55;17.10;;;;;;;8.81;100.00;99356.55;1731646;83;21220;-80
2023/04/30 00:22:55;;;;;;;37.03;18.73;;;;;;;8.79;100.00;99348.22;1731763;83;21192;-80
2023/04/30 00:26:02;;;;;;;28.38;17.07;;;;;;;8.77;100.00;99342.12;1732367;83;21260;-80
2023/04/30 00:29:08;;;;;;;28.20;15.90;;;;;;;8.84;100.00;99335.70;1733247;83;21184;-80
2023/04/30 00:32:13;;;;;;;22.13;14.58;;;;;;;8.83;100.00;99329.09;1733339;83;21180;-80
2023/04/30 00:35:19;;;;;;;19.92;13.98;;;;;;;8.69;100.00;99324.80;1733008;83;21208;-80
2023/04/30 00:38:25;;;;;;;17.42;12.93;;;;;;;8.71;100.00;99324.64;1733375;83;21177;-80
2023/04/30 00:41:31;;;;;;;20.08;13.55;;;;;;;8.65;100.00;99325.38;1732501;83;21251;-80
2023/04/30 00:44:37;;;;;;;18.77;13.25;;;;;;;8.57;100.00;99328.21;1733380;83;21779;-80
2023/04/30 00:47:43;;;;;;;27.10;15.48;;;;;;;8.55;100.00;99324.81;1740131;81;21211;-79
2023/04/30 00:50:49;;;;;;;38.48;19.57;;;;;;;8.59;100.00;99320.67;1744034;82;21735;-80
2023/04/30 00:53:54;;;;;;;39.98;21.93;;;;;;;8.58;100.00;99327.17;1734601;82;21220;-80
2023/04/30 00:57:00;;;;;;;42.93;23.57;;;;;;;8.57;100.00;99330.42;1742563;82;21188;-80
2023/04/30 01:00:06;;;;;;;37.50;23.40;;;;;;;8.56;100.00;99323.77;1743353;82;21216;-80
2023/04/30 01:03:11;;;;;;;46.70;25.82;;;;;;;8.51;100.00;99321.60;1743893;82;21180;-80
2023/04/30 01:06:17;;;;;;;46.08;24.95;;;;;;;8.55;100.00;99324.28;1733666;82;21184;-80
2023/04/30 01:09:24;;;;;;;42.88;23.12;;;;;;;8.57;100.00;99313.22;1742652;82;21227;-81
2023/04/30 01:12:51;;;;;;;39.55;22.48;;;;;;;8.44;100.00;99316.06;1743063;82;21254;-80
2023/04/30 01:16:26;;;;;;;37.78;19.85;;;;;;;8.44;100.00;99310.61;1743664;82;21315;-80
2023/04/30 01:19:51;;;;;;;38.05;19.95;;;;;;;8.45;100.00;99301.40;1743889;82;21202;-80
2023/04/30 01:23:12;;;;;;;34.08;20.52;;;;;;;8.42;100.00;99299.07;1743952;82;21477;-80
2023/04/30 01:27:02;;;;;;;36.03;20.00;;;;;;;8.42;100.00;99310.45;1743642;82;21754;-80
2023/04/30 01:30:07;;;;;;;29.03;17.73;;;;;;;8.35;100.00;99306.25;1707722;84;21212;-80
2023/04/30 01:33:12;;;;;;;31.60;20.20;;;;;;;8.31;100.00;99304.92;1688031;84;21847;-79
2023/04/30 01:36:57;;;;;;;25.27;16.73;;;;;;;8.28;100.00;99305.32;1743419;82;21195;-80
2023/04/30 01:40:34;;;;;;;31.62;19.92;;;;;;;8.34;100.00;99300.48;1743884;82;21180;-80
2023/04/30 01:43:48;;;;;;;34.60;21.80;;;;;;;8.37;100.00;99297.39;1742545;82;21187;-80
2023/04/30 01:47:39;;;;;;;34.85;21.15;;;;;;;8.32;100.00;99289.42;1742795;82;21294;-79
2023/04/30 01:51:12;;;;;;;28.45;18.75;;;;;;;8.30;100.00;99297.80;1735676;82;21228;-80
2023/04/30 01:54:37;;;;;;;30.70;19.10;;;;;;;8.37;100.00;99300.12;1734073;82;21200;-80
2023/04/30 01:57:46;;;;;;;40.50;23.98;;;;;;;8.26;100.00;99299.71;1734204;82;21208;-79
2023/04/30 02:00:52;;;;;;;34.18;21.95;;;;;;;8.17;100.00;99294.34;1734353;82;21244;-81
2023/04/30 02:03:58;;;;;;;31.90;21.70;;;;;;;8.16;100.00;99286.36;1735477;82;21177;-81
2023/04/30 02:07:04;;;;;;;42.95;25.05;;;;;;;8.15;100.00;99296.94;1734779;82;21177;-81
2023/04/30 02:10:11;;;;;;;45.30;26.48;;;;;;;8.14;100.00;99292.52;1735466;82;21184;-81
2023/04/30 02:13:17;;;;;;;47.13;27.45;;;;;;;8.11;100.00;99284.20;1734593;82;21219;-81
2023/04/30 02:16:22;;;;;;;40.00;24.47;;;;;;;8.12;100.00;99285.04;1735313;82;21322;-81
2023/04/30 02:19:28;;;;;;;42.35;24.05;;;;;;;8.19;100.00;99288.73;1735601;82;21188;-81
2023/04/30 02:22:34;;;;;;;46.15;23.35;;;;;;;8.21;100.00;99285.29;1735465;82;21180;-81
2023/04/30 02:25:40;;;;;;;44.73;24.75;;;;;;;8.13;100.00;99281.27;1735542;82;21599;-81
2023/04/30 02:28:45;;;;;;;47.23;24.75;;;;;;;8.12;100.00;99283.67;1734945;82;21196;-81
2023/04/30 02:31:51;;;;;;;46.95;24.15;;;;;;;8.05;100.00;99277.30;1734104;82;21169;-81
2023/04/30 02:34:56;;;;;;;44.35;25.25;;;;;;;8.18;100.00;99274.23;1734220;82;21219;-81
2023/04/30 02:38:02;;;;;;;50.55;25.43;;;;;;;8.29;100.00;99272.95;1734579;82;21220;-81
2023/04/30 02:41:08;;;;;;;55.45;26.77;;;;;;;8.28;100.00;99259.00;1735541;82;21232;-81
2023/04/30 02:44:13;;;;;;;48.08;25.02;;;;;;;8.27;100.00;99261.37;1734403;82;21251;-80
2023/04/30 02:47:18;;;;;;;43.98;24.60;;;;;;;8.23;100.00;99256.48;1735304;82;21180;-81
2023/04/30 02:50:24;;;;;;;43.90;25.02;;;;;;;8.18;100.00;99252.95;1732333;82;21216;-81
2023/04/30 02:53:30;;;;;;;46.90;26.40;;;;;;;8.22;100.00;99259.73;1733196;83;21184;-81
2023/04/30 02:56:35;;;;;;;35.00;19.90;;;;;;;8.16;100.00;99261.33;1733188;83;21176;-81
2023/04/30 02:59:44;;;;;;;31.82;19.77;;;;;;;8.19;100.00;99260.97;1731749;83;21169;-81
2023/04/30 03:02:49;;;;;;;37.53;20.60;;;;;;;8.18;100.00;99261.97;1733162;83;21184;-81
2023/04/30 03:05:58;;;;;;;32.30;18.02;;;;;;;8.23;100.00;99266.86;1733190;83;21517;-81
2023/04/30 03:09:02;;;;;;;42.58;21.45;;;;;;;8.24;100.00;99266.38;1731891;83;21164;-81
2023/04/30 03:12:08;;;;;;;37.13;22.00;;;;;;;8.29;100.00;99274.83;1733169;83;21219;-81
2023/04/30 03:15:14;;;;;;;34.30;20.15;;;;;;;8.31;100.00;99272.23;1733197;83;21179;-81
2023/04/30 03:18:22;;;;;;;37.20;20.45;;;;;;;8.28;100.00;99275.84;1732208;83;21267;-80
2023/04/30 03:21:27;;;;;;;35.33;19.52;;;;;;;8.32;100.00;99276.64;1733182;83;22013;-79
2023/04/30 03:24:33;;;;;;;36.33;19.27;;;;;;;8.35;100.00;99265.38;1733127;83;21179;-79
2023/04/30 03:27:38;;;;;;;36.85;21.17;;;;;;;8.39;100.00;99263.17;1732943;83;21227;-80
2023/04/30 03:30:45;;;;;;;32.58;18.40;;;;;;;8.32;100.00;99264.90;1733232;83;21184;-80
2023/04/30 03:33:51;;;;;;;34.08;20.55;;;;;;;8.31;100.00;99259.13;1715769;83;21172;-80
2023/04/30 03:36:57;;;;;;;31.52;18.50;;;;;;;8.34;100.00;99258.25;1733122;83;21157;-80
2023/04/30 03:40:04;;;;;;;38.55;21.65;;;;;;;8.36;100.00;99253.47;1733049;83;21160;-80
2023/04/30 03:43:09;;;;;;;33.08;19.65;;;;;;;8.34;100.00;99258.25;1733073;83;21239;-80
2023/04/30 03:46:15;;;;;;;37.93;22.58;;;;;;;8.35;100.00;99258.56;1733097;83;21223;-80
2023/04/30 03:49:21;;;;;;;34.78;20.30;;;;;;;8.33;100.00;99264.73;1732180;81;21236;-80
2023/04/30 03:52:27;;;;;;;31.55;18.70;;;;;;;8.36;100.00;99264.86;1735222;81;21208;-80
2023/04/30 03:55:32;;;;;;;37.03;19.65;;;;;;;8.35;100.00;99265.90;1732986;83;21295;-80
2023/04/30 03:58:38;;;;;;;28.73;17.92;;;;;;;8.35;100.00;99264.53;1732618;83;21200;-80
2023/04/30 04:01:44;;;;;;;30.88;16.65;;;;;;;8.27;100.00;99269.55;1733203;83;21280;-80
2023/04/30 04:04:50;;;;;;;21.35;13.85;;;;;;;8.27;100.00;99272.80;1733324;83;21161;-80
2023/04/30 04:07:55;;;;;;;22.98;11.75;;;;;;;8.33;100.00;99272.91;1733246;83;21180;-80
2023/04/30 04:11:00;;;;;;;14.40;12.10;;;;;;;8.24;100.00;99269.94;1733320;83;21196;-80
2023/04/30 04:14:06;;;;;;;14.87;11.15;;;;;;;8.19;100.00;99276.47;1733141;83;21258;-81
2023/04/30 04:17:12;;;;;;;12.73;9.75;;;;;;;8.15;100.00;99279.23;1733241;83;21192;-80
2023/04/30 04:20:19;;;;;;;13.22;10.82;;;;;;;8.22;100.00;99266.54;1733446;83;21169;-80
2023/04/30 04:23:18;;;;;;;12.47;10.30;;;;;;;8.17;100.00;99261.65;1733157;83;21843;-79
2023/04/30 04:26:13;;;;;;;10.93;8.55;;;;;;;8.25;100.00;99255.80;1733364;83;21152;-80
2023/04/30 04:29:19;;;;;;;9.65;8.45;;;;;;;8.27;100.00;99261.37;1732637;83;21200;-80
2023/04/30 04:32:26;;;;;;;10.88;7.87;;;;;;;8.23;100.00;99260.05;1733223;83;21240;-80
2023/04/30 04:35:32;;;;;;;15.05;9.65;;;;;;;8.24;100.00;99256.32;1731842;83;21176;-80
2023/04/30 04:38:38;;;;;;;11.80;8.70;;;;;;;8.34;100.00;99251.95;1731813;83;21219;-80
2023/04/30 04:41:43;;;;;;;11.15;8.70;;;;;;;8.29;100.00;99252.52;1733413;83;21220;-80
2023/04/30 04:44:50;;;;;;;11.53;8.95;;;;;;;8.33;100.00;99255.20;1733216;83;21252;-80
2023/04/30 04:47:55;;;;;;;11.75;8.95;;;;;;;8.39;100.00;99255.83;1733383;83;21719;-80
2023/04/30 04:50:55;;;;;;;13.28;9.63;;;;;;;8.46;100.00;99261.36;1733228;83;21165;-80
2023/04/30 04:54:00;;;;;;;13.13;8.90;;;;;;;8.47;100.00;99268.53;1741342;81;21200;-80
2023/04/30 04:57:06;;;;;;;13.62;9.18;;;;;;;8.39;100.00;99264.01;1743802;82;21795;-80
2023/04/30 05:00:15;;;;;;;7.95;6.00;;;;;;;8.48;100.00;99262.56;1742946;82;21207;-80
2023/04/30 05:03:20;;;;;;;8.55;5.22;;;;;;;8.54;100.00;99267.25;1743872;82;21180;-80
2023/04/30 05:06:27;;;;;;;5.20;4.40;;;;;;;8.53;100.00;99268.29;1743912;82;21750;-80
2023/04/30 05:09:32;;;;;;;6.65;4.87;;;;;;;8.59;100.00;99277.06;1743472;82;21180;-80
2023/04/30 05:12:37;;;;;;;5.58;4.58;;;;;;;8.54;100.00;99268.09;1744032;82;21707;-80
2023/04/30 05:15:43;;;;;;;4.45;3.95;;;;;;;8.55;100.00;99271.14;1743437;82;21191;-79
2023/04/30 05:18:49;;;;;;;5.03;4.50;;;;;;;8.62;100.00;99268.52;1743983;82;21549;-79
2023/04/30 05:21:54;;;;;;;4.90;4.35;;;;;;;8.66;100.00;99273.92;1743900;82;21817;-79
2023/04/30 05:24:59;;;;;;;6.10;4.42;;;;;;;8.73;100.00;99267.19;1743882;82;21854;-80
2023/04/30 05:28:05;;;;;;;6.65;5.33;;;;;;;8.78;100.00;99264.21;1743896;82;21240;-79
2023/04/30 05:31:11;;;;;;;21.02;12.55;;;;;;;8.83;100.00;99269.09;1742474;82;21212;-79
2023/04/30 05:34:18;;;;;;;32.88;17.60;;;;;;;8.88;100.00;99260.66;1742592;82;21160;-79
2023/04/30 05:37:23;;;;;;;22.52;12.45;;;;;;;8.95;100.00;99266.22;1742575;82;21286;-79
2023/04/30 05:40:29;;;;;;;26.48;12.70;;;;;;;8.97;100.00;99261.41;1742522;82;21255;-80
2023/04/30 05:43:28;;;;;;;27.93;15.25;;;;;;;9.07;100.00;99259.73;1743863;82;21176;-80
2023/04/30 05:46:20;;;;;;;29.48;14.43;;;;;;;9.04;100.00;99261.50;1743034;82;21255;-80
2023/04/30 05:49:06;;;;;;;26.77;13.93;;;;;;;9.00;100.00;99265.64;1743937;82;21187;-79
2023/04/30 05:52:14;;;;;;;27.00;15.58;;;;;;;9.02;100.00;99264.92;1743950;82;21199;-80
2023/04/30 05:55:19;;;;;;;34.75;18.48;;;;;;;9.21;100.00;99262.94;1732379;81;21263;-79
2023/04/30 05:58:25;;;;;;;33.85;21.17;;;;;;;9.43;100.00;99253.73;1733204;83;21313;-80
2023/04/30 06:01:31;;;;;;;33.75;20.45;;;;;;;9.38;100.00;99254.84;1731904;83;21254;-80
2023/04/30 06:04:38;;;;;;;37.40;22.45;;;;;;;9.50;100.00;99254.31;1733049;83;21169;-79
2023/04/30 06:07:44;;;;;;;44.03;22.55;;;;;;;9.46;100.00;99256.09;1733175;83;21185;-80
2023/04/30 06:10:50;;;;;;;31.65;21.73;;;;;;;9.54;100.00;99254.25;1732566;83;21224;-80
2023/04/30 06:13:49;;;;;;;42.80;27.07;;;;;;;9.65;100.00;99251.86;1733221;83;21184;-80
2023/04/30 06:16:42;;;;;;;30.97;21.48;;;;;;;9.71;100.00;99258.41;1732564;83;21220;-80
2023/04/30 06:19:28;;;;;;;26.42;17.40;;;;;;;9.78;100.00;99253.00;1733186;83;21397;-79
2023/04/30 06:22:22;;;;;;;27.02;18.15;;;;;;;9.78;100.00;99248.91;1733230;83;21290;-80
2023/04/30 06:25:10;;;;;;;22.58;15.28;;;;;;;9.80;100.00;99249.05;1733198;83;21160;-80
2023/04/30 06:28:04;;;;;;;28.55;18.50;;;;;;;9.82;100.00;99248.83;1733030;83;21220;-79
2023/04/30 06:31:10;;;;;;;26.25;17.52;;;;;;;9.81;100.00;99249.36;1732616;83;21165;-79
2023/04/30 06:34:15;;;;;;;30.68;19.37;;;;;;;9.94;100.00;99252.20;1733096;83;21192;-80
2023/04/30 06:37:22;;;;;;;33.90;18.60;;;;;;;9.85;100.00;99254.76;1733080;83;21543;-79
2023/04/30 06:40:29;;;;;;;36.48;24.85;;;;;;;9.92;100.00;99254.27;1731959;83;21196;-80
2023/04/30 06:43:36;;;;;;;32.42;21.37;;;;;;;9.91;100.00;99256.69;1733117;83;21212;-80
2023/04/30 06:46:41;;;;;;;25.20;18.12;;;;;;;9.83;100.00;99266.91;1733022;83;21219;-80
2023/04/30 06:49:46;;;;;;;32.48;18.25;;;;;;;9.85;100.00;99268.94;1733194;83;21180;-80
2023/04/30 06:52:52;;;;;;;51.90;25.80;;;;;;;9.78;100.00;99263.39;1733146;83;21224;-79
2023/04/30 06:55:57;;;;;;;32.67;21.33;;;;;;;9.75;100.00;99270.64;1740230;81;21195;-79
2023/04/30 06:59:02;;;;;;;30.05;18.35;;;;;;;9.88;100.00;99271.25;1743820;82;21227;-79
2023/04/30 07:02:07;;;;;;;23.62;14.68;;;;;;;9.87;100.00;99272.30;1742970;82;21196;-79
2023/04/30 07:05:15;;;;;;;26.77;16.48;;;;;;;9.85;100.00;99273.88;1743887;82;21180;-79
2023/04/30 07:08:21;;;;;;;30.23;19.02;;;;;;;9.84;100.00;99279.02;1743868;82;21184;-79
2023/04/30 07:11:28;;;;;;;37.40;21.82;;;;;;;10.12;100.00;99268.64;1743272;82;21786;-80
2023/04/30 07:14:33;;;;;;;28.00;17.65;;;;;;;10.22;100.00;99271.86;1742385;82;21227;-80
2023/04/30 07:17:40;;;;;;;19.25;13.05;;;;;;;10.25;100.00;99272.84;1742847;82;21763;-80
2023/04/30 07:20:46;;;;;;;21.68;14.80;;;;;;;10.12;100.00;99272.73;1742389;82;21196;-80
2023/04/30 07:23:52;;;;;;;29.32;15.35;;;;;;;10.18;100.00;99270.56;1742423;82;21180;-80
2023/04/30 07:27:01;;;;;;;34.08;17.10;;;;;;;10.28;100.00;99264.25;1743796;82;21215;-80
2023/04/30 07:30:04;;;;;;;23.20;14.98;;;;;;;10.48;100.00;99257.02;1742381;82;21238;-80
2023/04/30 07:33:10;;;;;;;21.77;12.70;;;;;;;10.68;100.00;99261.74;1743222;82;21329;-80
2023/04/30 07:36:16;;;;;;;18.73;12.63;;;;;;;10.79;100.00;99258.98;1743811;82;21192;-80
2023/04/30 07:39:22;;;;;;;17.17;12.40;;;;;;;10.78;100.00;99254.04;1744845;82;21798;-80
2023/04/30 07:42:26;;;;;;;24.00;16.42;;;;;;;10.86;100.00;99253.84;1743216;82;21220;-80
2023/04/30 07:45:32;;;;;;;21.73;13.72;;;;;;;10.90;100.00;99250.18;1742449;82;21184;-80
2023/04/30 07:48:31;;;;;;;26.90;18.55;;;;;;;10.85;100.00;99251.31;1743252;82;21215;-80
2023/04/30 07:51:37;;;;;;;24.70;14.23;;;;;;;11.09;100.00;99254.04;1743701;82;21180;-80
2023/04/30 07:54:43;;;;;;;21.73;13.58;;;;;;;11.06;100.00;99253.10;1743899;82;21196;-80
2023/04/30 07:57:48;;;;;;;16.85;12.85;;;;;;;11.06;100.00;99253.94;1743810;82;21187;-80
2023/04/30 08:00:53;;;;;;;22.02;13.83;;;;;;;11.14;100.00;99248.27;1742644;82;21218;-80
2023/04/30 08:03:59;;;;;;;18.87;13.72;;;;;;;11.10;100.00;99246.14;1743095;82;21206;-80
2023/04/30 08:07:06;;;;;;;21.60;14.55;;;;;;;11.06;100.00;99242.16;1743815;82;21211;-80
2023/04/30 08:10:12;;;;;;;23.32;15.58;;;;;;;11.05;100.00;99243.18;1743780;82;21192;-80
2023/04/30 08:13:19;;;;;;;25.57;17.77;;;;;;;11.09;100.00;99246.67;1742671;82;21184;-80
2023/04/30 08:16:25;;;;;;;26.07;18.98;;;;;;;11.17;100.00;99252.50;1743881;82;21235;-80
2023/04/30 08:19:31;;;;;;;22.37;17.25;;;;;;;11.07;100.00;99247.94;1743198;80;21219;-80
2023/04/30 08:22:36;;;;;;;26.42;18.00;;;;;;;11.05;100.00;99245.92;1743182;82;21793;-80
2023/04/30 08:25:41;;;;;;;23.30;15.90;;;;;;;11.07;100.00;99245.20;1743813;82;21291;-80
2023/04/30 08:28:46;;;;;;;20.57;13.83;;;;;;;11.05;100.00;99250.02;1743862;82;21176;-80
2023/04/30 08:31:52;;;;;;;19.30;12.25;;;;;;;11.08;100.00;99247.73;1743730;82;21176;-80
2023/04/30 08:34:58;;;;;;;17.73;12.58;;;;;;;11.09;100.00;99269.93;1742779;82;21211;-80
2023/04/30 08:38:03;;;;;;;18.50;13.05;;;;;;;11.00;100.00;99266.52;1743753;82;21758;-80
2023/04/30 08:41:18;;;;;;;24.12;16.37;;;;;;;11.06;100.00;99269.52;1743734;82;21227;-80
2023/04/30 08:44:24;;;;;;;19.25;12.47;;;;;;;11.07;100.00;99273.41;1743914;82;21180;-80
2023/04/30 08:47:30;;;;;;;19.92;13.60;;;;;;;11.12;100.00;99268.70;1743902;82;21184;-80
2023/04/30 08:50:35;;;;;;;21.05;13.75;;;;;;;11.16;100.00;99276.81;1742553;82;21778;-80
2023/04/30 08:53:43;;;;;;;21.27;13.45;;;;;;;11.19;100.00;99271.75;1742972;82;21176;-80
2023/04/30 08:56:49;;;;;;;24.90;17.60;;;;;;;11.09;100.00;99275.94;1743772;81;21204;-80
2023/04/30 08:59:54;;;;;;;26.45;17.70;;;;;;;11.10;100.00;99272.14;1743382;82;21314;-80
2023/04/30 09:03:00;;;;;;;21.20;15.30;;;;;;;11.15;100.00;99267.77;1743557;82;21259;-80
2023/04/30 09:06:06;;;;;;;25.85;14.40;;;;;;;11.16;100.00;99269.98;1743873;82;21164;-80
2023/04/30 09:09:21;;;;;;;29.02;18.27;;;;;;;11.18;100.00;99281.55;1743892;82;21179;-80
2023/04/30 09:12:26;;;;;;;23.47;14.75;;;;;;;11.19;100.00;99285.97;1744057;82;21218;-80
2023/04/30 09:15:32;;;;;;;22.07;14.15;;;;;;;11.21;100.00;99273.78;1743819;82;21212;-80
2023/04/30 09:18:43;;;;;;;21.40;15.90;;;;;;;11.17;100.00;99273.86;1742533;80;21813;-80
2023/04/30 09:21:48;;;;;;;27.93;19.00;;;;;;;10.99;100.00;99271.69;1743890;82;21219;-80
2023/04/30 09:24:54;;;;;;;24.37;17.48;;;;;;;11.17;100.00;99279.86;1743984;82;21248;-80
2023/04/30 09:28:17;;;;;;;24.75;16.93;;;;;;;11.02;100.00;99279.19;1744078;82;21174;-80
2023/04/30 09:31:29;;;;;;;31.35;19.48;;;;;;;11.14;100.00;99280.27;1743734;82;21180;-80
2023/04/30 09:34:42;;;;;;;24.63;16.95;;;;;;;11.23;100.00;99285.88;1742612;82;21758;-81
2023/04/30 09:37:48;;;;;;;23.87;17.45;;;;;;;11.31;100.00;99282.97;1743791;82;21220;-80
2023/04/30 09:40:54;;;;;;;22.60;15.85;;;;;;;11.42;100.00;99283.72;1743867;82;21923;-80
2023/04/30 09:44:02;;;;;;;20.15;14.68;;;;;;;11.57;100.00;99286.81;1742458;82;21204;-81
2023/04/30 09:47:07;;;;;;;22.32;16.57;;;;;;;11.54;99.98;99294.93;1742559;82;21187;-80
2023/04/30 09:50:00;;;;;;;43.47;23.63;;;;;;;11.47;100.00;99289.42;1743819;82;21212;-80
2023/04/30 09:53:00;;;;;;;34.90;20.10;;;;;;;11.44;100.00;99298.06;1743123;82;21188;-80
2023/04/30 09:56:05;;;;;;;31.93;23.07;;;;;;;11.25;100.00;99304.33;1743953;82;21180;-79
2023/04/30 09:59:10;;;;;;;32.30;21.95;;;;;;;11.32;100.00;99309.81;1735555;81;21732;-79
2023/04/30 10:02:17;;;;;;;50.80;31.90;;;;;;;11.38;100.00;99307.08;1733120;83;21210;-79
2023/04/30 10:05:15;;;;;;;24.10;16.60;;;;;;;11.31;100.00;99312.23;1731828;83;21231;-79
2023/04/30 10:08:32;;;;;;;28.83;18.23;;;;;;;11.26;100.00;99321.06;1733056;83;21239;-79
2023/04/30 10:11:37;;;;;;;28.35;17.77;;;;;;;11.20;100.00;99315.89;1731645;83;21180;-80
2023/04/30 10:14:43;;;;;;;22.80;17.05;;;;;;;11.20;100.00;99319.16;1731693;83;21718;-80
2023/04/30 10:17:48;;;;;;;27.98;19.10;;;;;;;11.13;100.00;99327.84;1731809;83;21169;-80
2023/04/30 10:20:54;;;;;;;27.00;18.32;;;;;;;11.11;100.00;99321.75;1732749;83;21212;-80
2023/04/30 10:24:01;;;;;;;24.80;16.90;;;;;;;11.14;100.00;99324.05;1732765;83;21790;-80
2023/04/30 10:27:00;;;;;;;29.12;17.02;;;;;;;11.09;100.00;99327.93;1733174;83;21168;-80
2023/04/30 10:29:53;;;;;;;25.62;16.90;;;;;;;10.89;100.00;99324.58;1713398;83;21181;-80
2023/04/30 10:33:39;;;;;;;27.65;17.52;;;;;;;10.84;100.00;99323.50;1733420;83;21220;-80
2023/04/30 10:36:52;;;;;;;32.58;21.80;;;;;;;10.94;100.00;99328.91;1716906;82;21196;-80
2023/04/30 10:39:57;;;;;;;25.43;16.80;;;;;;;10.94;100.00;99330.81;1733153;83;21731;-80
2023/04/30 10:43:02;;;;;;;26.73;17.73;;;;;;;10.96;100.00;99332.80;1716041;83;21180;-80
2023/04/30 10:46:08;;;;;;;26.05;17.07;;;;;;;10.99;100.00;99333.25;1732987;83;21174;-80
2023/04/30 10:49:13;;;;;;;24.60;16.87;;;;;;;10.97;100.00;99332.63;1715982;83;21180;-80
2023/04/30 10:52:19;;;;;;;24.32;16.37;;;;;;;10.95;100.00;99338.80;1731903;83;21192;-81
2023/04/30 10:55:24;;;;;;;22.15;16.02;;;;;;;11.08;100.00;99338.56;1732139;83;21180;-80
2023/04/30 10:58:36;;;;;;;20.50;15.05;;;;;;;11.07;100.00;99344.56;1733072;82;21165;-81
2023/04/30 11:01:42;;;;;;;22.27;16.27;;;;;;;11.13;100.00;99345.11;1743790;82;21228;-81
2023/04/30 11:05:17;;;;;;;22.02;15.60;;;;;;;11.19;100.00;99347.55;1742296;82;21259;-80
2023/04/30 11:08:20;;;;;;;17.62;12.75;;;;;;;11.31;100.00;99347.30;1734523;80;21187;-80
2023/04/30 11:11:26;;;;;;;26.33;15.18;;;;;;;11.38;100.00;99345.41;1743825;82;21215;-80
2023/04/30 11:14:31;;;;;;;19.75;13.03;;;;;;;11.47;100.00;99344.19;1743656;82;21746;-80
2023/04/30 11:17:37;;;;;;;19.42;12.70;;;;;;;11.57;100.00;99347.06;1744027;82;21187;-80
2023/04/30 11:20:47;;;;;;;19.48;11.63;;;;;;;11.55;100.00;99345.06;1734385;82;21750;-80
2023/04/30 11:23:54;;;;;;;20.35;11.70;;;;;;;11.46;100.00;99341.66;1734563;82;21160;-80
2023/04/30 11:27:13;;;;;;;16.52;12.28;;;;;;;11.49;100.00;99339.89;1733790;82;21180;-80
2023/04/30 11:30:22;;;;;;;19.07;11.45;;;;;;;11.49;100.00;99340.73;1743947;82;21176;-81
2023/04/30 11:33:27;;;;;;;16.32;10.88;;;;;;;11.48;100.00;99346.42;1743923;82;21747;-81
2023/04/30 11:36:32;;;;;;;16.10;10.13;;;;;;;11.51;100.00;99337.25;1742561;82;21754;-80
2023/04/30 11:39:39;;;;;;;14.45;9.83;;;;;;;11.66;100.00;99343.92;1743916;82;21219;-80
2023/04/30 11:42:47;;;;;;;14.73;10.43;;;;;;;11.81;100.00;99350.63;1743798;82;21719;-80
2023/04/30 11:45:54;;;;;;;16.05;10.38;;;;;;;11.86;100.00;99352.24;1743294;82;21219;-80
2023/04/30 11:48:59;;;;;;;16.02;9.35;;;;;;;11.88;100.00;99347.92;1743887;82;21168;-80
2023/04/30 11:52:07;;;;;;;14.35;10.50;;;;;;;11.89;100.00;99342.22;1743528;82;21561;-80
2023/04/30 11:55:21;;;;;;;11.78;8.45;;;;;;;11.92;100.00;99345.92;1743638;82;21168;-80
2023/04/30 11:58:32;;;;;;;13.18;9.00;;;;;;;11.83;100.00;99347.70;1743928;82;21176;-80
2023/04/30 12:01:35;;;;;;;11.25;8.33;;;;;;;11.77;100.00;99350.19;1742151;82;21196;-80
2023/04/30 12:04:40;;;;;;;17.45;7.83;;;;;;;11.62;100.00;99350.89;1744056;82;21462;-80
2023/04/30 12:07:46;;;;;;;11.05;8.00;;;;;;;11.51;100.00;99350.10;1743201;82;21342;-80
2023/04/30 12:10:52;;;;;;;11.12;7.95;;;;;;;11.46;100.00;99343.88;1742470;80;21180;-80
2023/04/30 12:14:02;;;;;;;10.38;8.05;;;;;;;11.31;100.00;99347.83;1743810;82;21248;-80
2023/04/30 12:17:08;;;;;;;;;;;;;;;11.31;100.00;99348.67;1745266;82;21176;-80
2023/04/30 12:20:15;;;;;;;11.93;7.83;;;;;;;11.30;100.00;99349.72;1744152;82;20199;-80
2023/04/30 12:23:19;;;;;;;11.63;8.55;;;;;;;11.32;99.83;99347.61;1743058;82;21211;-80
2023/04/30 12:26:24;;;;;;;13.88;8.03;;;;;;;11.37;99.02;99342.89;1743399;82;21219;-80
2023/04/30 12:29:30;;;;;;;11.28;8.03;;;;;;;11.33;99.11;99342.98;1742507;82;21235;-80
2023/04/30 12:32:37;;;;;;;14.45;9.25;;;;;;;11.20;98.59;99347.89;1743812;82;21294;-80
2023/04/30 12:35:43;;;;;;;9.73;7.15;;;;;;;11.12;99.20;99348.91;1742473;82;21227;-81
2023/04/30 12:38:52;;;;;;;11.38;7.60;;;;;;;11.02;100.00;99351.17;1743338;82;21208;-81
2023/04/30 12:41:58;;;;;;;13.55;9.15;;;;;;;10.96;100.00;99354.69;1743866;82;21184;-80
2023/04/30 12:45:04;;;;;;;14.80;9.90;;;;;;;10.91;100.00;99367.61;1743900;82;21175;-80
2023/04/30 12:48:11;;;;;;;13.83;9.95;;;;;;;10.88;100.00;99362.56;1744021;82;21152;-80
2023/04/30 12:51:18;;;;;;;20.25;13.53;;;;;;;10.83;100.00;99365.05;1743935;82;21180;-80
2023/04/30 12:54:40;;;;;;;19.70;13.05;;;;;;;10.81;100.00;99361.66;1742753;82;21255;-80
2023/04/30 12:57:47;;;;;;;22.48;14.45;;;;;;;10.74;100.00;99363.52;1742648;82;22065;-80
2023/04/30 13:00:56;;;;;;;31.93;20.25;;;;;;;10.73;100.00;99363.21;1742611;81;21215;-79
2023/04/30 13:03:57;;;;;;;22.73;17.27;;;;;;;10.67;100.00;99357.15;1744159;82;21231;-81
2023/04/30 13:06:51;;;;;;;23.47;17.73;;;;;;;10.68;100.00;99358.83;1743259;82;21219;-81
2023/04/30 13:09:55;;;;;;;77.27;42.25;;;;;;;10.61;100.00;99359.33;1742484;82;21263;-81
2023/04/30 13:13:01;;;;;;;78.95;50.58;;;;;;;10.53;100.00;99357.58;1743912;82;21181;-81
2023/04/30 13:16:01;;;;;;;84.05;50.23;;;;;;;10.51;100.00;99357.47;1742580;82;21247;-79
2023/04/30 13:18:54;;;;;;;91.10;54.42;;;;;;;10.44;100.00;99356.03;1743910;82;21223;-79
2023/04/30 13:22:00;;;;;;;92.45;54.27;;;;;;;10.41;100.00;99357.30;1743875;82;21176;-81
2023/04/30 13:25:07;;;;;;;93.58;55.30;;;;;;;10.37;100.00;99357.36;1742509;82;21203;-81
2023/04/30 13:28:13;;;;;;;103.58;56.63;;;;;;;10.39;100.00;99357.99;1742563;82;21223;-82
2023/04/30 13:31:18;;;;;;;74.15;46.15;;;;;;;10.32;100.00;99359.00;1743887;82;21833;-81
2023/04/30 13:34:23;;;;;;;82.12;48.95;;;;;;;10.26;100.00;99364.75;1742460;82;21180;-81
2023/04/30 13:37:32;;;;;;;70.10;41.50;;;;;;;10.17;100.00;99357.70;1743259;82;21188;-81
2023/04/30 13:40:37;;;;;;;76.95;45.30;;;;;;;10.09;100.00;99366.86;1743808;82;21160;-82
2023/04/30 13:43:43;;;;;;;88.78;48.33;;;;;;;10.15;100.00;99362.49;1743844;82;21203;-81
2023/04/30 13:46:49;;;;;;;84.92;45.90;;;;;;;10.04;100.00;99364.40;1742421;82;21275;-81
2023/04/30 13:49:56;;;;;;;63.63;36.10;;;;;;;10.05;100.00;99366.09;1744001;82;21172;-81
2023/04/30 13:53:02;;;;;;;61.98;34.35;;;;;;;10.02;100.00;99365.09;1743970;82;21172;-81
2023/04/30 13:56:09;;;;;;;49.73;29.87;;;;;;;9.98;100.00;99367.40;1743960;82;21168;-81
2023/04/30 13:59:14;;;;;;;45.20;25.23;;;;;;;9.98;100.00;99367.40;1743713;82;21814;-81
2023/04/30 14:02:21;;;;;;;40.80;24.20;;;;;;;9.98;100.00;99368.77;1740862;81;21251;-81
2023/04/30 14:05:27;;;;;;;45.50;24.63;;;;;;;10.00;100.00;99374.86;1733150;83;21211;-81
2023/04/30 14:08:33;;;;;;;34.20;20.60;;;;;;;9.98;100.00;99378.33;1731987;83;21882;-81
2023/04/30 14:11:39;;;;;;;30.95;19.37;;;;;;;10.01;100.00;99374.34;1733096;83;21161;-81
2023/04/30 14:14:45;;;;;;;34.90;19.80;;;;;;;9.86;100.00;99376.61;1733345;83;21180;-81